METAR Formatted Surface Weather Observation
Issued by NWS

Home | Current Version | Previous Version | Text Only | Print | Product List | Glossary On
Versions: 1 2 3 4 5 6 7 8 9 10 11
000
SAUS45 KPSR 180557
MTRFHU
METAR KFHU 180556Z AUTO 00000KT 10SM BKN110 20/16 A3016 RMK AO2
RAE14 SLP151 P0000 60008 T02000161 10289 20189 58016 $



USA.gov is the U.S. government's official web portal to all federal, state and local government web resources and services.